sensor_id;sensor_type;location;lat;lon;timestamp;P1;P2;P0
79038;PMS5003;68436;55.068;73.284;2024-02-21T00:01:02;53.00;40.75;25.00
79038;PMS5003;68436;55.068;73.284;2024-02-21T00:03:28;50.00;40.33;25.00
79038;PMS5003;68436;55.068;73.284;2024-02-21T00:05:54;52.25;40.00;24.00
79038;PMS5003;68436;55.068;73.284;2024-02-21T00:08:20;49.00;39.00;25.00
79038;PMS5003;68436;55.068;73.284;2024-02-21T00:10:46;46.25;37.25;25.00
79038;PMS5003;68436;55.068;73.284;2024-02-21T00:13:13;53.00;41.00;25.33
79038;PMS5003;68436;55.068;73.284;2024-02-21T00:15:39;53.00;42.00;26.00
79038;PMS5003;68436;55.068;73.284;2024-02-21T00:18:05;49.25;41.00;27.00
79038;PMS5003;68436;55.068;73.284;2024-02-21T00:20:31;54.00;41.00;27.00
79038;PMS5003;68436;55.068;73.284;2024-02-21T00:22:57;47.00;38.00;26.00
79038;PMS5003;68436;55.068;73.284;2024-02-21T00:25:23;52.00;41.00;26.00
79038;PMS5003;68436;55.068;73.284;2024-02-21T00:27:54;44.00;36.00;23.50
79038;PMS5003;68436;55.068;73.284;2024-02-21T00:30:21;47.00;37.00;24.00
79038;PMS5003;68436;55.068;73.284;2024-02-21T00:32:54;54.00;40.67;25.00
79038;PMS5003;68436;55.068;73.284;2024-02-21T00:35:20;46.00;38.00;25.00
79038;PMS5003;68436;55.068;73.284;2024-02-21T00:37:54;49.00;38.00;24.00
79038;PMS5003;68436;55.068;73.284;2024-02-21T00:40:22;49.75;39.00;24.00
79038;PMS5003;68436;55.068;73.284;2024-02-21T00:42:54;57.00;43.00;27.00
79038;PMS5003;68436;55.068;73.284;2024-02-21T00:45:20;52.25;41.00;25.00
79038;PMS5003;68436;55.068;73.284;2024-02-21T00:48:05;55.00;44.33;29.00
79038;PMS5003;68436;55.068;73.284;2024-02-21T00:50:31;48.00;38.00;23.00
79038;PMS5003;68436;55.068;73.284;2024-02-21T00:52:57;50.00;40.00;24.67
79038;PMS5003;68436;55.068;73.284;2024-02-21T00:55:23;50.00;39.00;25.00
79038;PMS5003;68436;55.068;73.284;2024-02-21T00:57:54;50.00;40.00;26.00
79038;PMS5003;68436;55.068;73.284;2024-02-21T01:00:20;49.25;39.50;25.00
79038;PMS5003;68436;55.068;73.284;2024-02-21T01:02:54;54.33;43.00;26.67
79038;PMS5003;68436;55.068;73.284;2024-02-21T01:05:20;48.75;40.00;26.50
79038;PMS5003;68436;55.068;73.284;2024-02-21T01:07:54;50.00;39.50;25.00
79038;PMS5003;68436;55.068;73.284;2024-02-21T01:10:20;55.50;43.25;26.00
79038;PMS5003;68436;55.068;73.284;2024-02-21T01:12:54;56.00;43.33;28.00
79038;PMS5003;68436;55.068;73.284;2024-02-21T01:15:20;55.00;42.00;27.00
79038;PMS5003;68436;55.068;73.284;2024-02-21T01:17:54;52.00;41.00;28.00
79038;PMS5003;68436;55.068;73.284;2024-02-21T01:20:21;53.00;42.00;28.00
79038;PMS5003;68436;55.068;73.284;2024-02-21T01:22:54;56.00;43.00;27.00
79038;PMS5003;68436;55.068;73.284;2024-02-21T01:25:20;59.00;45.25;28.00
79038;PMS5003;68436;55.068;73.284;2024-02-21T01:27:54;53.00;41.00;26.00
79038;PMS5003;68436;55.068;73.284;2024-02-21T01:30:20;57.00;44.00;27.75
79038;PMS5003;68436;55.068;73.284;2024-02-21T01:32:54;61.67;48.00;30.00
79038;PMS5003;68436;55.068;73.284;2024-02-21T01:35:20;56.00;45.00;29.00
79038;PMS5003;68436;55.068;73.284;2024-02-21T01:37:54;52.00;41.33;27.00
79038;PMS5003;68436;55.068;73.284;2024-02-21T01:40:20;64.00;49.00;31.00
79038;PMS5003;68436;55.068;73.284;2024-02-21T01:42:55;57.00;44.33;28.33
79038;PMS5003;68436;55.068;73.284;2024-02-21T01:45:21;58.00;45.00;29.00
79038;PMS5003;68436;55.068;73.284;2024-02-21T01:47:54;74.00;58.00;36.00
79038;PMS5003;68436;55.068;73.284;2024-02-21T01:50:20;75.50;59.25;38.00
79038;PMS5003;68436;55.068;73.284;2024-02-21T01:55:46;69.75;54.50;34.00
79038;PMS5003;68436;55.068;73.284;2024-02-21T01:58:15;77.75;62.75;38.00
79038;PMS5003;68436;55.068;73.284;2024-02-21T02:00:42;89.75;73.00;43.00
79038;PMS5003;68436;55.068;73.284;2024-02-21T02:03:12;87.67;73.00;45.33
79038;PMS5003;68436;55.068;73.284;2024-02-21T02:08:10;82.25;64.50;41.25
79038;PMS5003;68436;55.068;73.284;2024-02-21T02:10:37;57.50;44.00;28.00
79038;PMS5003;68436;55.068;73.284;2024-02-21T02:13:03;59.50;46.00;29.00
79038;PMS5003;68436;55.068;73.284;2024-02-21T02:15:37;68.25;52.00;33.00
79038;PMS5003;68436;55.068;73.284;2024-02-21T02:18:03;62.00;48.00;31.00
79038;PMS5003;68436;55.068;73.284;2024-02-21T02:20:29;72.50;55.25;36.00
79038;PMS5003;68436;55.068;73.284;2024-02-21T02:22:55;69.50;53.50;34.50
79038;PMS5003;68436;55.068;73.284;2024-02-21T02:25:22;71.25;54.00;34.00
79038;PMS5003;68436;55.068;73.284;2024-02-21T02:30:39;63.00;49.00;31.75
79038;PMS5003;68436;55.068;73.284;2024-02-21T02:33:05;62.33;49.00;33.00
79038;PMS5003;68436;55.068;73.284;2024-02-21T02:35:31;69.00;52.25;33.00
79038;PMS5003;68436;55.068;73.284;2024-02-21T02:37:58;65.75;50.00;31.00
79038;PMS5003;68436;55.068;73.284;2024-02-21T02:40:24;64.50;49.00;31.00
79038;PMS5003;68436;55.068;73.284;2024-02-21T02:42:54;62.00;48.00;31.00
79038;PMS5003;68436;55.068;73.284;2024-02-21T02:45:21;69.00;54.00;34.00
79038;PMS5003;68436;55.068;73.284;2024-02-21T02:48:07;74.25;58.50;37.75
79038;PMS5003;68436;55.068;73.284;2024-02-21T02:50:33;60.25;48.00;31.00
79038;PMS5003;68436;55.068;73.284;2024-02-21T02:52:59;69.00;52.00;33.00
79038;PMS5003;68436;55.068;73.284;2024-02-21T02:55:25;68.00;51.00;33.00
79038;PMS5003;68436;55.068;73.284;2024-02-21T02:57:54;66.00;51.00;33.00
79038;PMS5003;68436;55.068;73.284;2024-02-21T03:00:21;70.00;54.00;34.00
79038;PMS5003;68436;55.068;73.284;2024-02-21T03:02:54;73.00;56.50;38.00
79038;PMS5003;68436;55.068;73.284;2024-02-21T03:05:21;77.00;60.00;37.00
79038;PMS5003;68436;55.068;73.284;2024-02-21T03:07:54;73.50;57.50;36.00
79038;PMS5003;68436;55.068;73.284;2024-02-21T03:10:21;71.00;56.25;35.00
79038;PMS5003;68436;55.068;73.284;2024-02-21T03:12:54;65.00;51.00;33.00
79038;PMS5003;68436;55.068;73.284;2024-02-21T03:15:20;69.00;52.00;34.00
79038;PMS5003;68436;55.068;73.284;2024-02-21T03:17:54;71.33;56.00;36.00
79038;PMS5003;68436;55.068;73.284;2024-02-21T03:20:20;69.50;54.50;35.00
79038;PMS5003;68436;55.068;73.284;2024-02-21T03:22:54;66.67;52.00;33.33
79038;PMS5003;68436;55.068;73.284;2024-02-21T03:25:20;73.00;57.00;34.00
79038;PMS5003;68436;55.068;73.284;2024-02-21T03:27:54;65.33;50.33;33.33
79038;PMS5003;68436;55.068;73.284;2024-02-21T03:30:20;73.25;59.25;38.00
79038;PMS5003;68436;55.068;73.284;2024-02-21T03:32:54;64.67;49.67;33.00
79038;PMS5003;68436;55.068;73.284;2024-02-21T03:35:38;69.75;53.00;33.25
79038;PMS5003;68436;55.068;73.284;2024-02-21T03:38:05;72.00;58.00;38.00
79038;PMS5003;68436;55.068;73.284;2024-02-21T03:40:31;69.00;53.00;33.75
79038;PMS5003;68436;55.068;73.284;2024-02-21T03:42:57;71.33;54.67;33.33
79038;PMS5003;68436;55.068;73.284;2024-02-21T03:45:23;70.00;54.00;34.00
79038;PMS5003;68436;55.068;73.284;2024-02-21T03:47:54;71.00;55.50;35.00
79038;PMS5003;68436;55.068;73.284;2024-02-21T03:50:20;73.25;56.75;34.50
79038;PMS5003;68436;55.068;73.284;2024-02-21T03:52:54;67.00;51.00;32.67
79038;PMS5003;68436;55.068;73.284;2024-02-21T03:55:20;68.25;51.25;31.75
79038;PMS5003;68436;55.068;73.284;2024-02-21T03:57:54;71.50;56.50;34.00
79038;PMS5003;68436;55.068;73.284;2024-02-21T04:00:20;70.50;54.50;34.50
79038;PMS5003;68436;55.068;73.284;2024-02-21T04:02:54;62.33;48.00;31.00
79038;PMS5003;68436;55.068;73.284;2024-02-21T04:05:22;67.00;51.00;33.00
79038;PMS5003;68436;55.068;73.284;2024-02-21T04:07:54;68.00;52.00;33.00
79038;PMS5003;68436;55.068;73.284;2024-02-21T04:10:20;66.00;51.25;32.75
79038;PMS5003;68436;55.068;73.284;2024-02-21T04:12:54;68.00;53.00;33.00
79038;PMS5003;68436;55.068;73.284;2024-02-21T04:15:20;64.50;49.50;31.75
79038;PMS5003;68436;55.068;73.284;2024-02-21T04:18:05;69.33;54.00;33.33
79038;PMS5003;68436;55.068;73.284;2024-02-21T04:20:31;68.50;51.00;33.00
79038;PMS5003;68436;55.068;73.284;2024-02-21T04:22:58;69.00;53.50;34.75
79038;PMS5003;68436;55.068;73.284;2024-02-21T04:25:24;70.00;54.50;35.00
79038;PMS5003;68436;55.068;73.284;2024-02-21T04:27:54;65.00;50.00;33.00
79038;PMS5003;68436;55.068;73.284;2024-02-21T04:30:20;62.75;49.00;33.00
79038;PMS5003;68436;55.068;73.284;2024-02-21T04:32:54;66.00;51.00;32.00
79038;PMS5003;68436;55.068;73.284;2024-02-21T04:35:20;70.75;54.75;33.25
79038;PMS5003;68436;55.068;73.284;2024-02-21T04:37:54;63.00;49.00;30.67
79038;PMS5003;68436;55.068;73.284;2024-02-21T04:40:39;66.25;50.25;32.00
79038;PMS5003;68436;55.068;73.284;2024-02-21T04:43:05;64.00;49.75;30.00
79038;PMS5003;68436;55.068;73.284;2024-02-21T04:45:31;67.00;51.75;32.50
79038;PMS5003;68436;55.068;73.284;2024-02-21T04:47:57;64.50;50.00;32.00
79038;PMS5003;68436;55.068;73.284;2024-02-21T04:50:23;62.00;49.00;32.00
79038;PMS5003;68436;55.068;73.284;2024-02-21T04:52:54;60.00;48.00;32.00
79038;PMS5003;68436;55.068;73.284;2024-02-21T04:55:20;59.00;45.50;29.00
79038;PMS5003;68436;55.068;73.284;2024-02-21T04:57:54;61.67;47.00;29.33
79038;PMS5003;68436;55.068;73.284;2024-02-21T05:00:20;59.75;47.00;29.00
79038;PMS5003;68436;55.068;73.284;2024-02-21T05:02:54;63.00;47.00;30.67
79038;PMS5003;68436;55.068;73.284;2024-02-21T05:05:20;62.50;48.25;31.50
79038;PMS5003;68436;55.068;73.284;2024-02-21T05:07:54;54.67;42.67;27.33
79038;PMS5003;68436;55.068;73.284;2024-02-21T05:10:20;60.00;47.00;29.00
79038;PMS5003;68436;55.068;73.284;2024-02-21T05:12:54;49.33;40.67;26.00
79038;PMS5003;68436;55.068;73.284;2024-02-21T05:15:20;60.50;47.25;30.25
79038;PMS5003;68436;55.068;73.284;2024-02-21T05:17:54;58.33;46.00;29.00
79038;PMS5003;68436;55.068;73.284;2024-02-21T05:20:20;57.50;45.25;28.25
79038;PMS5003;68436;55.068;73.284;2024-02-21T05:22:54;62.00;48.00;31.00
79038;PMS5003;68436;55.068;73.284;2024-02-21T05:25:20;71.75;55.25;35.25
79038;PMS5003;68436;55.068;73.284;2024-02-21T05:27:54;66.33;52.00;34.00
79038;PMS5003;68436;55.068;73.284;2024-02-21T05:30:21;69.75;53.50;34.00
79038;PMS5003;68436;55.068;73.284;2024-02-21T05:32:54;63.50;49.00;31.00
79038;PMS5003;68436;55.068;73.284;2024-02-21T05:35:24;71.00;55.00;35.00
79038;PMS5003;68436;55.068;73.284;2024-02-21T05:37:54;90.00;70.50;45.00
79038;PMS5003;68436;55.068;73.284;2024-02-21T05:40:20;155.50;124.75;70.00
79038;PMS5003;68436;55.068;73.284;2024-02-21T05:42:54;73.00;56.33;36.00
79038;PMS5003;68436;55.068;73.284;2024-02-21T05:45:20;70.00;52.00;33.00
79038;PMS5003;68436;55.068;73.284;2024-02-21T05:47:54;72.67;58.33;36.00
79038;PMS5003;68436;55.068;73.284;2024-02-21T05:50:20;63.50;49.00;32.25
79038;PMS5003;68436;55.068;73.284;2024-02-21T05:52:54;64.00;49.00;31.00
79038;PMS5003;68436;55.068;73.284;2024-02-21T05:55:21;58.50;46.00;28.00
79038;PMS5003;68436;55.068;73.284;2024-02-21T05:57:54;57.00;45.00;28.50
79038;PMS5003;68436;55.068;73.284;2024-02-21T06:00:21;57.25;43.00;27.75
79038;PMS5003;68436;55.068;73.284;2024-02-21T06:02:54;56.50;43.00;27.00
79038;PMS5003;68436;55.068;73.284;2024-02-21T06:05:20;51.00;40.00;26.00
79038;PMS5003;68436;55.068;73.284;2024-02-21T06:07:54;52.00;41.00;26.33
79038;PMS5003;68436;55.068;73.284;2024-02-21T06:10:21;59.50;47.00;31.00
79038;PMS5003;68436;55.068;73.284;2024-02-21T06:12:54;62.00;47.00;29.00
79038;PMS5003;68436;55.068;73.284;2024-02-21T06:15:20;55.00;41.00;24.25
79038;PMS5003;68436;55.068;73.284;2024-02-21T06:17:54;42.00;33.00;18.33
79038;PMS5003;68436;55.068;73.284;2024-02-21T06:20:20;50.00;37.75;24.00
79038;PMS5003;68436;55.068;73.284;2024-02-21T06:22:54;40.00;32.00;19.67
79038;PMS5003;68436;55.068;73.284;2024-02-21T06:25:20;40.00;31.00;19.00
79038;PMS5003;68436;55.068;73.284;2024-02-21T06:27:54;42.67;31.33;19.00
79038;PMS5003;68436;55.068;73.284;2024-02-21T06:30:20;45.00;35.50;22.00
79038;PMS5003;68436;55.068;73.284;2024-02-21T06:32:54;42.67;34.00;20.67
79038;PMS5003;68436;55.068;73.284;2024-02-21T06:35:24;35.00;27.00;16.00
79038;PMS5003;68436;55.068;73.284;2024-02-21T06:37:54;36.50;30.00;17.00
79038;PMS5003;68436;55.068;73.284;2024-02-21T06:40:21;43.00;34.00;21.00
79038;PMS5003;68436;55.068;73.284;2024-02-21T06:42:54;42.50;33.50;20.50
79038;PMS5003;68436;55.068;73.284;2024-02-21T06:45:20;36.00;27.00;17.75
79038;PMS5003;68436;55.068;73.284;2024-02-21T06:47:54;27.67;21.00;13.33
79038;PMS5003;68436;55.068;73.284;2024-02-21T06:50:20;30.00;24.00;15.50
79038;PMS5003;68436;55.068;73.284;2024-02-21T06:53:04;50.33;39.33;26.00
79038;PMS5003;68436;55.068;73.284;2024-02-21T06:55:32;49.00;38.25;23.50
79038;PMS5003;68436;55.068;73.284;2024-02-21T06:58:00;41.20;32.20;20.40
79038;PMS5003;68436;55.068;73.284;2024-02-21T07:00:28;35.75;28.00;18.50
79038;PMS5003;68436;55.068;73.284;2024-02-21T07:02:54;32.00;27.00;19.00
79038;PMS5003;68436;55.068;73.284;2024-02-21T07:05:20;37.00;30.00;19.00
79038;PMS5003;68436;55.068;73.284;2024-02-21T07:07:54;29.00;23.00;15.50
79038;PMS5003;68436;55.068;73.284;2024-02-21T07:10:20;46.50;35.50;22.00
79038;PMS5003;68436;55.068;73.284;2024-02-21T07:13:04;35.67;29.67;18.00
79038;PMS5003;68436;55.068;73.284;2024-02-21T07:15:31;40.50;31.75;20.00
79038;PMS5003;68436;55.068;73.284;2024-02-21T07:17:58;35.60;27.60;16.40
79038;PMS5003;68436;55.068;73.284;2024-02-21T07:20:24;34.00;26.50;16.25
79038;PMS5003;68436;55.068;73.284;2024-02-21T07:22:54;23.50;21.00;14.00
79038;PMS5003;68436;55.068;73.284;2024-02-21T07:25:20;36.25;28.00;18.25
79038;PMS5003;68436;55.068;73.284;2024-02-21T07:27:54;38.00;31.00;20.00
79038;PMS5003;68436;55.068;73.284;2024-02-21T07:30:20;30.25;24.00;16.00
79038;PMS5003;68436;55.068;73.284;2024-02-21T07:32:54;24.33;21.00;12.00
79038;PMS5003;68436;55.068;73.284;2024-02-21T07:35:20;34.25;28.00;17.25
79038;PMS5003;68436;55.068;73.284;2024-02-21T07:38:05;30.50;25.25;13.75
79038;PMS5003;68436;55.068;73.284;2024-02-21T07:40:31;43.00;34.00;22.50
79038;PMS5003;68436;55.068;73.284;2024-02-21T07:42:57;32.75;26.25;16.75
79038;PMS5003;68436;55.068;73.284;2024-02-21T07:45:23;33.00;25.00;14.75
79038;PMS5003;68436;55.068;73.284;2024-02-21T07:47:54;53.00;41.00;27.00
79038;PMS5003;68436;55.068;73.284;2024-02-21T07:50:21;40.25;29.00;17.75
79038;PMS5003;68436;55.068;73.284;2024-02-21T07:52:54;39.00;32.00;20.00
79038;PMS5003;68436;55.068;73.284;2024-02-21T07:55:20;49.50;38.75;24.50
79038;PMS5003;68436;55.068;73.284;2024-02-21T07:57:54;34.00;26.00;15.00
79038;PMS5003;68436;55.068;73.284;2024-02-21T08:00:20;44.00;34.50;21.50
79038;PMS5003;68436;55.068;73.284;2024-02-21T08:02:54;39.67;32.00;19.00
79038;PMS5003;68436;55.068;73.284;2024-02-21T08:05:20;39.00;30.00;19.00
79038;PMS5003;68436;55.068;73.284;2024-02-21T08:07:54;36.00;28.00;18.00
79038;PMS5003;68436;55.068;73.284;2024-02-21T08:10:20;29.00;22.75;12.00
79038;PMS5003;68436;55.068;73.284;2024-02-21T08:12:54;36.00;27.00;16.00
79038;PMS5003;68436;55.068;73.284;2024-02-21T08:15:20;31.00;24.00;14.00
79038;PMS5003;68436;55.068;73.284;2024-02-21T08:17:54;41.00;32.00;19.50
79038;PMS5003;68436;55.068;73.284;2024-02-21T08:20:25;22.75;19.50;12.50
79038;PMS5003;68436;55.068;73.284;2024-02-21T08:22:54;29.50;22.50;15.00
79038;PMS5003;68436;55.068;73.284;2024-02-21T08:25:20;32.75;25.00;16.00
79038;PMS5003;68436;55.068;73.284;2024-02-21T08:27:57;40.67;32.00;18.67
79038;PMS5003;68436;55.068;73.284;2024-02-21T08:30:23;30.25;23.75;13.00
79038;PMS5003;68436;55.068;73.284;2024-02-21T08:32:54;57.00;42.00;25.00
79038;PMS5003;68436;55.068;73.284;2024-02-21T08:35:20;38.00;30.00;18.00
79038;PMS5003;68436;55.068;73.284;2024-02-21T08:37:54;44.00;34.50;21.50
79038;PMS5003;68436;55.068;73.284;2024-02-21T08:40:20;39.00;31.00;19.00
79038;PMS5003;68436;55.068;73.284;2024-02-21T08:42:54;36.00;28.00;17.00
79038;PMS5003;68436;55.068;73.284;2024-02-21T08:45:20;44.00;34.00;22.00
79038;PMS5003;68436;55.068;73.284;2024-02-21T08:47:54;36.33;28.67;17.00
79038;PMS5003;68436;55.068;73.284;2024-02-21T08:50:20;31.50;26.25;16.50
79038;PMS5003;68436;55.068;73.284;2024-02-21T08:52:54;38.00;30.00;18.33
79038;PMS5003;68436;55.068;73.284;2024-02-21T08:55:21;42.50;33.75;21.50
79038;PMS5003;68436;55.068;73.284;2024-02-21T08:57:54;38.33;29.00;17.00
79038;PMS5003;68436;55.068;73.284;2024-02-21T09:00:20;32.50;26.50;17.50
79038;PMS5003;68436;55.068;73.284;2024-02-21T09:02:54;52.50;40.00;27.00
79038;PMS5003;68436;55.068;73.284;2024-02-21T09:05:21;34.75;29.50;18.50
79038;PMS5003;68436;55.068;73.284;2024-02-21T09:07:54;39.00;30.00;20.00
79038;PMS5003;68436;55.068;73.284;2024-02-21T09:10:20;37.25;29.75;19.00
79038;PMS5003;68436;55.068;73.284;2024-02-21T09:12:54;34.33;26.33;17.00
79038;PMS5003;68436;55.068;73.284;2024-02-21T09:15:20;46.25;36.00;23.00
79038;PMS5003;68436;55.068;73.284;2024-02-21T09:20:38;48.00;37.00;23.50
79038;PMS5003;68436;55.068;73.284;2024-02-21T09:23:04;36.00;27.00;17.33
79038;PMS5003;68436;55.068;73.284;2024-02-21T09:25:30;28.25;22.75;12.50
79038;PMS5003;68436;55.068;73.284;2024-02-21T09:27:57;47.00;36.25;22.25
79038;PMS5003;68436;55.068;73.284;2024-02-21T09:30:24;46.25;36.25;23.50
79038;PMS5003;68436;55.068;73.284;2024-02-21T09:32:54;40.00;31.00;19.00
79038;PMS5003;68436;55.068;73.284;2024-02-21T09:35:20;49.00;36.25;21.50
79038;PMS5003;68436;55.068;73.284;2024-02-21T09:37:54;34.00;27.00;17.00
79038;PMS5003;68436;55.068;73.284;2024-02-21T09:40:20;42.25;32.00;20.25
79038;PMS5003;68436;55.068;73.284;2024-02-21T09:43:03;44.50;34.00;23.00
79038;PMS5003;68436;55.068;73.284;2024-02-21T09:45:33;40.00;31.50;19.50
79038;PMS5003;68436;55.068;73.284;2024-02-21T09:48:15;36.00;29.25;18.00
79038;PMS5003;68436;55.068;73.284;2024-02-21T09:50:46;27.25;21.75;13.50
79038;PMS5003;68436;55.068;73.284;2024-02-21T09:53:13;46.50;36.00;23.00
79038;PMS5003;68436;55.068;73.284;2024-02-21T09:55:40;35.50;28.00;18.25
79038;PMS5003;68436;55.068;73.284;2024-02-21T09:58:07;33.50;27.25;16.75
79038;PMS5003;68436;55.068;73.284;2024-02-21T10:00:35;47.25;37.00;24.00
79038;PMS5003;68436;55.068;73.284;2024-02-21T10:03:01;42.00;34.00;21.00
79038;PMS5003;68436;55.068;73.284;2024-02-21T10:05:28;37.50;29.75;18.25
79038;PMS5003;68436;55.068;73.284;2024-02-21T10:07:54;27.00;22.00;13.00
79038;PMS5003;68436;55.068;73.284;2024-02-21T10:10:21;32.25;25.00;15.75
79038;PMS5003;68436;55.068;73.284;2024-02-21T10:12:54;52.00;40.00;24.00
79038;PMS5003;68436;55.068;73.284;2024-02-21T10:15:20;59.50;45.00;28.00
79038;PMS5003;68436;55.068;73.284;2024-02-21T10:18:00;44.00;33.00;18.00
79038;PMS5003;68436;55.068;73.284;2024-02-21T10:20:27;32.50;25.25;15.25
79038;PMS5003;68436;55.068;73.284;2024-02-21T10:23:00;40.00;32.00;21.00
79038;PMS5003;68436;55.068;73.284;2024-02-21T10:25:28;43.50;33.25;19.50
79038;PMS5003;68436;55.068;73.284;2024-02-21T10:27:54;61.50;48.50;31.50
79038;PMS5003;68436;55.068;73.284;2024-02-21T10:30:20;48.25;38.25;24.50
79038;PMS5003;68436;55.068;73.284;2024-02-21T10:32:54;38.00;29.67;18.33
79038;PMS5003;68436;55.068;73.284;2024-02-21T10:35:30;54.50;43.00;27.75
79038;PMS5003;68436;55.068;73.284;2024-02-21T10:37:57;40.33;32.00;19.00
79038;PMS5003;68436;55.068;73.284;2024-02-21T10:40:27;34.75;27.75;17.50
79038;PMS5003;68436;55.068;73.284;2024-02-21T10:42:56;35.50;27.50;18.00
79038;PMS5003;68436;55.068;73.284;2024-02-21T10:45:24;35.50;27.50;17.00
79038;PMS5003;68436;55.068;73.284;2024-02-21T10:47:55;42.00;34.00;22.00
79038;PMS5003;68436;55.068;73.284;2024-02-21T10:50:21;47.00;35.00;22.00
79038;PMS5003;68436;55.068;73.284;2024-02-21T10:53:07;48.50;38.00;25.00
79038;PMS5003;68436;55.068;73.284;2024-02-21T10:55:49;47.50;38.75;26.00
79038;PMS5003;68436;55.068;73.284;2024-02-21T10:58:17;52.67;41.67;27.00
79038;PMS5003;68436;55.068;73.284;2024-02-21T11:00:44;40.75;32.50;20.50
79038;PMS5003;68436;55.068;73.284;2024-02-21T11:03:11;38.00;29.00;17.50
79038;PMS5003;68436;55.068;73.284;2024-02-21T11:05:38;44.00;35.00;23.00
79038;PMS5003;68436;55.068;73.284;2024-02-21T11:08:08;47.00;38.00;23.50
79038;PMS5003;68436;55.068;73.284;2024-02-21T11:10:36;41.50;33.00;20.50
79038;PMS5003;68436;55.068;73.284;2024-02-21T11:13:07;44.00;34.00;23.00
79038;PMS5003;68436;55.068;73.284;2024-02-21T11:15:34;46.00;36.50;23.00
79038;PMS5003;68436;55.068;73.284;2024-02-21T11:18:00;39.25;32.00;20.25
79038;PMS5003;68436;55.068;73.284;2024-02-21T11:20:49;35.75;28.25;17.25
79038;PMS5003;68436;55.068;73.284;2024-02-21T11:23:23;37.25;30.00;19.25
79038;PMS5003;68436;55.068;73.284;2024-02-21T11:25:49;35.75;29.25;19.75
79038;PMS5003;68436;55.068;73.284;2024-02-21T11:28:16;41.75;33.50;20.50
79038;PMS5003;68436;55.068;73.284;2024-02-21T11:30:51;39.00;29.50;19.25
79038;PMS5003;68436;55.068;73.284;2024-02-21T11:33:17;30.33;24.67;16.33
79038;PMS5003;68436;55.068;73.284;2024-02-21T11:35:43;40.75;32.00;20.00
79038;PMS5003;68436;55.068;73.284;2024-02-21T11:38:12;43.33;34.00;20.33
79038;PMS5003;68436;55.068;73.284;2024-02-21T11:40:45;41.50;33.25;21.00
79038;PMS5003;68436;55.068;73.284;2024-02-21T11:43:12;47.33;37.67;23.00
79038;PMS5003;68436;55.068;73.284;2024-02-21T11:45:38;36.25;29.00;16.75
79038;PMS5003;68436;55.068;73.284;2024-02-21T11:48:05;18.50;15.00;8.75
79038;PMS5003;68436;55.068;73.284;2024-02-21T11:50:31;39.75;30.75;18.75
79038;PMS5003;68436;55.068;73.284;2024-02-21T11:52:58;37.50;30.00;19.25
79038;PMS5003;68436;55.068;73.284;2024-02-21T11:55:24;36.75;30.00;19.00
79038;PMS5003;68436;55.068;73.284;2024-02-21T11:57:54;42.50;34.50;21.00
79038;PMS5003;68436;55.068;73.284;2024-02-21T12:00:20;46.75;35.50;23.50
79038;PMS5003;68436;55.068;73.284;2024-02-21T12:02:54;37.00;29.50;19.50
79038;PMS5003;68436;55.068;73.284;2024-02-21T12:05:21;40.50;32.00;21.75
79038;PMS5003;68436;55.068;73.284;2024-02-21T12:08:07;45.67;35.33;24.00
79038;PMS5003;68436;55.068;73.284;2024-02-21T12:10:34;55.75;43.00;27.00
79038;PMS5003;68436;55.068;73.284;2024-02-21T12:13:05;50.00;39.00;24.00
79038;PMS5003;68436;55.068;73.284;2024-02-21T12:15:32;51.75;39.25;24.75
79038;PMS5003;68436;55.068;73.284;2024-02-21T12:17:58;51.50;40.75;24.75
79038;PMS5003;68436;55.068;73.284;2024-02-21T12:20:25;49.75;37.75;23.50
79038;PMS5003;68436;55.068;73.284;2024-02-21T12:22:54;47.00;37.00;24.00
79038;PMS5003;68436;55.068;73.284;2024-02-21T12:25:38;48.25;38.25;24.25
79038;PMS5003;68436;55.068;73.284;2024-02-21T12:28:05;51.00;41.00;27.00
79038;PMS5003;68436;55.068;73.284;2024-02-21T12:30:45;50.00;39.00;24.00
79038;PMS5003;68436;55.068;73.284;2024-02-21T12:33:11;51.67;40.67;25.67
79038;PMS5003;68436;55.068;73.284;2024-02-21T12:35:39;55.00;42.25;27.00
79038;PMS5003;68436;55.068;73.284;2024-02-21T12:38:05;47.50;38.00;22.25
79038;PMS5003;68436;55.068;73.284;2024-02-21T12:40:32;51.00;40.25;25.25
79038;PMS5003;68436;55.068;73.284;2024-02-21T12:43:04;48.67;39.67;25.33
79038;PMS5003;68436;55.068;73.284;2024-02-21T12:45:30;64.00;49.00;31.00
79038;PMS5003;68436;55.068;73.284;2024-02-21T12:47:56;63.33;48.00;31.00
79038;PMS5003;68436;55.068;73.284;2024-02-21T12:50:23;59.25;45.25;28.75
79038;PMS5003;68436;55.068;73.284;2024-02-21T12:53:08;57.00;44.00;29.00
79038;PMS5003;68436;55.068;73.284;2024-02-21T12:55:34;58.00;45.00;29.00
79038;PMS5003;68436;55.068;73.284;2024-02-21T12:58:02;59.25;44.50;28.50
79038;PMS5003;68436;55.068;73.284;2024-02-21T13:00:29;53.25;42.25;27.00
79038;PMS5003;68436;55.068;73.284;2024-02-21T13:02:57;60.00;44.50;28.50
79038;PMS5003;68436;55.068;73.284;2024-02-21T13:05:23;59.75;44.25;28.00
79038;PMS5003;68436;55.068;73.284;2024-02-21T13:07:54;52.50;41.00;26.00
79038;PMS5003;68436;55.068;73.284;2024-02-21T13:10:20;54.00;40.75;26.00
79038;PMS5003;68436;55.068;73.284;2024-02-21T13:12:54;51.50;40.00;25.00
79038;PMS5003;68436;55.068;73.284;2024-02-21T13:15:20;49.75;39.25;24.75
79038;PMS5003;68436;55.068;73.284;2024-02-21T13:17:55;53.00;41.00;26.00
79038;PMS5003;68436;55.068;73.284;2024-02-21T13:20:21;55.00;43.75;27.75
79038;PMS5003;68436;55.068;73.284;2024-02-21T13:22:54;53.00;41.00;25.50
79038;PMS5003;68436;55.068;73.284;2024-02-21T13:25:20;53.75;41.25;27.25
79038;PMS5003;68436;55.068;73.284;2024-02-21T13:27:54;57.33;43.67;28.33
79038;PMS5003;68436;55.068;73.284;2024-02-21T13:30:21;60.00;44.25;28.00
79038;PMS5003;68436;55.068;73.284;2024-02-21T13:32:54;56.00;44.50;29.50
79038;PMS5003;68436;55.068;73.284;2024-02-21T13:35:22;56.75;43.25;26.50
79038;PMS5003;68436;55.068;73.284;2024-02-21T13:37:59;52.75;41.25;25.25
79038;PMS5003;68436;55.068;73.284;2024-02-21T13:40:26;59.00;46.00;29.00
79038;PMS5003;68436;55.068;73.284;2024-02-21T13:42:54;56.00;41.50;25.50
79038;PMS5003;68436;55.068;73.284;2024-02-21T13:45:21;62.75;47.00;29.00
79038;PMS5003;68436;55.068;73.284;2024-02-21T13:47:54;58.00;45.00;27.50
79038;PMS5003;68436;55.068;73.284;2024-02-21T13:50:23;55.00;42.25;26.00
79038;PMS5003;68436;55.068;73.284;2024-02-21T13:52:54;62.00;48.00;32.00
79038;PMS5003;68436;55.068;73.284;2024-02-21T13:55:20;61.00;47.00;29.25
79038;PMS5003;68436;55.068;73.284;2024-02-21T13:57:54;63.00;49.00;31.00